Time;durP1;ratioP1;P1;durP2;ratioP2;P2;SDS_P1;SDS_P2;PMS_P1;PMS_P2;Temp;Humidity;BMP_temperature;BMP_pressure;BME280_temperature;BME280_humidity;BME280_pressure;Samples;Min_cycle;Max_cycle;Signal;HPM_P1;HPM_P2
2021/01/02 00:00:03;;;;;;;9.55;3.45;;;1.80;99.90;;;;;;4902678;29;20035;-93
2021/01/02 00:02:44;;;;;;;7.30;2.70;;;1.80;99.90;;;;;;4917610;29;20505;-94
2021/01/02 00:05:13;;;;;;;8.40;2.22;;;1.80;99.90;;;;;;4915705;29;20033;-95
2021/01/02 00:07:56;;;;;;;5.57;1.90;;;1.80;99.90;;;;;;4916817;29;20478;-94
2021/01/02 00:10:26;;;;;;;7.60;2.30;;;1.80;99.90;;;;;;4898113;29;20032;-94
2021/01/02 00:13:12;;;;;;;3.83;2.33;;;1.70;99.90;;;;;;4916636;29;20084;-93
2021/01/02 00:16:04;;;;;;;4.28;1.58;;;1.70;99.90;;;;;;4917359;29;20576;-93
2021/01/02 00:18:57;;;;;;;6.72;1.60;;;1.70;99.90;;;;;;4912268;29;20028;-94
2021/01/02 00:21:27;;;;;;;3.70;1.45;;;1.70;99.90;;;;;;4863484;29;20039;-94
2021/01/02 00:24:13;;;;;;;4.57;1.73;;;1.60;99.90;;;;;;4906957;29;20017;-93
2021/01/02 00:26:47;;;;;;;6.15;2.67;;;1.60;99.90;;;;;;4904057;29;20043;-93
2021/01/02 00:29:24;;;;;;;7.15;2.60;;;1.60;99.90;;;;;;4914389;29;20118;-94
2021/01/02 00:32:02;;;;;;;9.68;3.38;;;1.50;99.90;;;;;;4917894;29;20094;-93
2021/01/02 00:34:54;;;;;;;6.57;2.13;;;1.50;99.90;;;;;;4916719;29;20091;-95
2021/01/02 00:37:30;;;;;;;2.95;1.45;;;1.50;99.90;;;;;;4916929;29;20478;-93
2021/01/02 00:40:09;;;;;;;16.00;4.50;;;1.50;99.90;;;;;;4918693;29;20028;-94
2021/01/02 00:42:36;;;;;;;16.33;4.70;;;1.50;99.90;;;;;;4902957;29;20048;-93
2021/01/02 00:45:05;;;;;;;17.02;4.18;;;1.50;99.90;;;;;;4922833;29;20095;-93
2021/01/02 00:47:39;;;;;;;17.75;3.25;;;1.40;99.90;;;;;;4925176;29;20032;-94
2021/01/02 00:50:07;;;;;;;6.97;2.00;;;1.50;99.90;;;;;;4928556;29;20043;-94
2021/01/02 00:52:45;;;;;;;7.57;2.25;;;1.40;99.90;;;;;;4927759;29;20392;-93
2021/01/02 00:55:29;;;;;;;11.45;2.80;;;1.40;99.90;;;;;;4932761;29;20024;-92
2021/01/02 00:57:57;;;;;;;23.05;5.40;;;1.40;99.90;;;;;;4919776;29;20056;-92
2021/01/02 01:00:37;;;;;;;31.00;9.65;;;1.40;99.90;;;;;;4926403;29;20036;-92
2021/01/02 01:03:05;;;;;;;24.58;5.25;;;1.40;99.90;;;;;;4934018;29;20048;-92
2021/01/02 01:05:36;;;;;;;33.25;8.27;;;1.30;99.90;;;;;;4926150;29;20064;-93
2021/01/02 01:08:02;;;;;;;;;;;1.30;99.90;;;;;;4923513;29;20032;-92
2021/01/02 01:10:31;;;;;;;29.65;7.65;;;1.30;99.90;;;;;;4922114;29;19907;-93
2021/01/02 01:13:15;;;;;;;20.73;5.40;;;1.20;99.90;;;;;;4939302;29;20068;-93
2021/01/02 01:15:42;;;;;;;14.68;3.42;;;1.20;99.90;;;;;;4939204;29;20020;-92
2021/01/02 01:18:16;;;;;;;9.27;3.28;;;1.10;99.90;;;;;;4938838;29;20031;-93
2021/01/02 01:20:46;;;;;;;16.13;5.93;;;1.10;99.90;;;;;;4923565;29;20076;-93
2021/01/02 01:23:28;;;;;;;13.07;3.90;;;1.10;99.90;;;;;;4941193;29;20044;-92
2021/01/02 01:26:09;;;;;;;10.45;4.40;;;1.10;99.90;;;;;;4941322;29;20092;-94
2021/01/02 01:28:39;;;;;;;12.48;4.10;;;1.00;99.90;;;;;;4924533;29;20077;-94
2021/01/02 01:31:05;;;;;;;13.02;5.32;;;1.00;99.90;;;;;;4938760;29;20028;-93
2021/01/02 01:33:31;;;;;;;9.68;4.05;;;1.00;99.90;;;;;;4941254;29;20043;-93
2021/01/02 01:36:03;;;;;;;8.55;3.40;;;0.90;99.90;;;;;;4940873;29;20031;-93
2021/01/02 01:38:29;;;;;;;8.50;2.85;;;0.90;99.90;;;;;;4941365;29;20032;-93
2021/01/02 01:41:13;;;;;;;3.72;1.83;;;0.90;99.90;;;;;;4944255;29;20111;-93
2021/01/02 01:44:03;;;;;;;5.57;1.30;;;0.80;99.90;;;;;;4944218;29;20084;-92
2021/01/02 01:46:34;;;;;;;3.47;1.50;;;0.80;99.90;;;;;;4937100;29;20096;-93
2021/01/02 01:49:08;;;;;;;;;;;0.80;99.90;;;;;;4924437;29;20053;-93
2021/01/02 01:51:59;;;;;;;5.85;2.67;;;0.80;99.90;;;;;;4935318;29;19907;-92
2021/01/02 01:55:06;;;;;;;5.30;2.92;;;0.70;99.90;;;;;;4937277;29;20095;-91
2021/01/02 01:57:38;;;;;;;5.28;2.67;;;0.70;99.90;;;;;;4928808;29;20025;-92
2021/01/02 02:00:09;;;;;;;5.72;3.20;;;0.70;99.90;;;;;;4905201;29;20036;-92
2021/01/02 02:02:47;;;;;;;11.63;3.40;;;0.60;99.90;;;;;;4901369;29;20447;-93
2021/01/02 02:05:17;;;;;;;7.65;3.67;;;0.60;99.90;;;;;;4931272;29;20035;-93
2021/01/02 02:07:53;;;;;;;;;;;0.60;99.90;;;;;;4897750;29;20032;-92
2021/01/02 02:10:32;;;;;;;9.65;3.42;;;0.50;99.90;;;;;;4912544;29;19916;-91
2021/01/02 02:13:00;;;;;;;7.32;4.10;;;0.50;99.90;;;;;;4926044;29;20047;-93
2021/01/02 02:15:29;;;;;;;9.13;4.75;;;0.40;99.90;;;;;;4914149;29;20044;-93
2021/01/02 02:18:14;;;;;;;12.90;4.00;;;0.40;99.90;;;;;;4901912;29;20054;-91
2021/01/02 02:20:47;;;;;;;7.35;4.07;;;0.30;99.90;;;;;;4902919;29;20040;-91
2021/01/02 02:23:14;;;;;;;10.95;5.10;;;0.40;99.90;;;;;;4918155;29;20077;-92
2021/01/02 02:26:15;;;;;;;9.38;3.45;;;0.30;99.90;;;;;;4902069;29;20031;-94
2021/01/02 02:28:50;;;;;;;16.58;6.25;;;0.30;99.90;;;;;;4900789;29;20048;-91
2021/01/02 02:31:17;;;;;;;12.25;6.00;;;0.30;99.90;;;;;;4932974;29;20063;-93
2021/01/02 02:33:55;;;;;;;11.77;5.07;;;0.20;99.90;;;;;;4901009;29;20051;-91
2021/01/02 02:36:22;;;;;;;12.23;5.22;;;0.20;99.90;;;;;;4901348;29;20032;-92
2021/01/02 02:38:49;;;;;;;9.75;5.80;;;0.30;99.90;;;;;;4896657;29;20033;-93
2021/01/02 02:41:16;;;;;;;11.43;5.28;;;0.30;99.90;;;;;;4891598;29;20372;-92
2021/01/02 02:43:46;;;;;;;11.38;4.60;;;0.20;99.90;;;;;;4900119;29;20043;-91
2021/01/02 02:46:14;;;;;;;15.65;5.70;;;0.20;99.90;;;;;;4922141;29;20049;-92
2021/01/02 02:48:46;;;;;;;11.27;5.40;;;0.20;99.90;;;;;;4895144;29;20047;-92
2021/01/02 02:51:19;;;;;;;17.10;7.25;;;0.20;99.90;;;;;;4912474;29;20059;-91
2021/01/02 02:53:48;;;;;;;16.35;8.30;;;0.20;99.90;;;;;;4896285;29;20037;-92
2021/01/02 02:56:13;;;;;;;14.50;6.70;;;0.10;99.90;;;;;;4910769;29;20558;-92
2021/01/02 02:58:39;;;;;;;10.65;4.80;;;0.10;99.90;;;;;;4894409;29;20036;-93
2021/01/02 03:01:04;;;;;;;10.15;4.95;;;0.10;99.90;;;;;;4886426;29;20033;-94
2021/01/02 03:03:30;;;;;;;15.10;6.43;;;0.10;99.90;;;;;;4921837;29;20053;-91
2021/01/02 03:05:58;;;;;;;13.65;7.03;;;0.10;99.90;;;;;;4886460;29;20055;-93
2021/01/02 03:08:26;;;;;;;18.75;7.68;;;0.00;99.90;;;;;;4884319;29;20108;-92
2021/01/02 03:10:53;;;;;;;14.25;7.32;;;0.00;99.90;;;;;;4888864;29;20021;-94
2021/01/02 03:13:19;;;;;;;13.82;7.00;;;-0.10;99.90;;;;;;4892315;29;20082;-91
2021/01/02 03:15:45;;;;;;;15.15;6.90;;;-0.10;99.90;;;;;;4890781;29;20725;-91
2021/01/02 03:18:11;;;;;;;17.30;6.93;;;-0.10;99.90;;;;;;4891120;29;20033;-91
2021/01/02 03:20:37;;;;;;;14.10;7.32;;;-0.10;99.90;;;;;;4922419;29;20043;-92
2021/01/02 03:23:04;;;;;;;17.35;7.57;;;-0.10;99.90;;;;;;4885588;29;20033;-93
2021/01/02 03:25:32;;;;;;;16.45;7.72;;;-0.10;99.90;;;;;;4886362;29;20045;-93
2021/01/02 03:27:58;;;;;;;15.07;6.78;;;-0.20;99.90;;;;;;4892556;29;20029;-93
2021/01/02 03:30:27;;;;;;;17.67;8.30;;;-0.20;99.90;;;;;;4887170;29;20124;-92
2021/01/02 03:32:58;;;;;;;19.88;8.25;;;-0.20;99.90;;;;;;4905127;29;20122;-91
2021/01/02 03:35:24;;;;;;;;;;;-0.20;99.90;;;;;;4919840;29;20045;-91
2021/01/02 03:37:56;;;;;;;17.13;7.90;;;-0.20;99.90;;;;;;4902252;29;19907;-91
2021/01/02 03:40:23;;;;;;;18.30;8.10;;;-0.20;99.90;;;;;;4880060;29;20076;-92
2021/01/02 03:42:51;;;;;;;20.77;8.93;;;-0.20;99.90;;;;;;4880646;29;20037;-92
2021/01/02 03:45:18;;;;;;;20.45;9.50;;;-0.20;99.90;;;;;;4879685;29;20035;-93
2021/01/02 03:47:46;;;;;;;19.15;8.60;;;-0.20;99.90;;;;;;4904214;29;20041;-92
2021/01/02 03:50:13;;;;;;;19.92;9.50;;;-0.10;99.90;;;;;;4923536;29;20055;-93
2021/01/02 03:52:40;;;;;;;21.23;9.07;;;-0.10;99.90;;;;;;4890483;29;20025;-90
2021/01/02 03:55:13;;;;;;;19.65;8.85;;;-0.10;99.90;;;;;;4891146;29;20061;-92
2021/01/02 03:57:38;;;;;;;16.95;8.05;;;-0.10;99.90;;;;;;4890837;29;20561;-93
2021/01/02 04:00:08;;;;;;;18.85;8.35;;;-0.20;99.90;;;;;;4890242;29;20037;-92
2021/01/02 04:02:34;;;;;;;16.17;7.63;;;-0.20;99.90;;;;;;4882838;29;20049;-92
2021/01/02 04:05:00;;;;;;;14.80;7.45;;;-0.10;99.90;;;;;;4882458;29;20063;-92
2021/01/02 04:07:26;;;;;;;16.58;7.47;;;-0.20;99.90;;;;;;4913443;29;20060;-93
2021/01/02 04:09:52;;;;;;;15.10;7.35;;;-0.20;99.90;;;;;;4889596;29;20037;-92
2021/01/02 04:12:17;;;;;;;16.02;8.48;;;-0.10;99.90;;;;;;4894772;29;20032;-92
2021/01/02 04:14:45;;;;;;;15.32;7.30;;;-0.10;99.90;;;;;;4893503;29;20040;-93
2021/01/02 04:17:11;;;;;;;18.35;7.35;;;-0.20;99.90;;;;;;4893604;29;20036;-93
2021/01/02 04:19:37;;;;;;;13.50;7.03;;;-0.20;99.90;;;;;;4910407;29;20024;-92
2021/01/02 04:22:04;;;;;;;19.90;8.70;;;-0.20;99.90;;;;;;4925566;29;20033;-92
2021/01/02 04:24:32;;;;;;;13.75;6.45;;;-0.20;99.90;;;;;;4894213;29;20024;-92
2021/01/02 04:27:03;;;;;;;15.95;7.88;;;-0.20;99.90;;;;;;4896050;29;20087;-92
2021/01/02 04:29:29;;;;;;;15.75;6.93;;;-0.20;99.90;;;;;;4896960;29;20029;-92
2021/01/02 04:31:55;;;;;;;14.05;6.50;;;-0.20;99.90;;;;;;4897071;29;20036;-92
2021/01/02 04:34:23;;;;;;;11.85;6.85;;;-0.30;99.90;;;;;;4897834;29;20044;-92
2021/01/02 04:36:50;;;;;;;14.93;5.57;;;-0.30;99.90;;;;;;4897951;29;20025;-91
2021/01/02 04:39:19;;;;;;;17.55;5.97;;;-0.30;99.90;;;;;;4930964;29;20016;-93
2021/01/02 04:41:45;;;;;;;12.50;5.75;;;-0.30;99.90;;;;;;4895992;29;20009;-92
2021/01/02 04:44:11;;;;;;;10.60;5.13;;;-0.30;99.90;;;;;;4928110;29;20036;-92
2021/01/02 04:46:40;;;;;;;12.45;5.20;;;-0.30;99.90;;;;;;4913332;29;20037;-92
2021/01/02 04:49:06;;;;;;;11.10;6.22;;;-0.30;99.90;;;;;;4897316;29;20051;-91
2021/01/02 04:51:32;;;;;;;13.68;6.07;;;-0.30;99.90;;;;;;4897432;29;20025;-92
2021/01/02 04:54:05;;;;;;;13.57;5.78;;;-0.30;99.90;;;;;;4901866;29;20041;-93
2021/01/02 04:56:38;;;;;;;11.40;6.13;;;-0.30;99.90;;;;;;4884626;29;20052;-93
2021/01/02 04:59:11;;;;;;;12.80;6.38;;;-0.40;99.90;;;;;;4893610;29;20025;-92
2021/01/02 05:01:49;;;;;;;13.90;7.57;;;-0.40;99.90;;;;;;4894146;29;20036;-92
2021/01/02 05:04:15;;;;;;;11.63;5.95;;;-0.40;99.90;;;;;;4923794;29;20155;-92
2021/01/02 05:06:41;;;;;;;13.13;6.15;;;-0.40;99.90;;;;;;4893943;29;20049;-92
2021/01/02 05:09:07;;;;;;;11.48;5.05;;;-0.40;99.90;;;;;;4899607;29;20041;-94
2021/01/02 05:11:37;;;;;;;12.77;5.20;;;-0.50;99.90;;;;;;4898028;29;20037;-91
2021/01/02 05:14:04;;;;;;;10.48;5.55;;;-0.40;99.90;;;;;;4892800;29;20041;-92
2021/01/02 05:16:38;;;;;;;9.18;4.47;;;-0.50;99.90;;;;;;4893563;29;20025;-92
2021/01/02 05:19:06;;;;;;;8.55;4.72;;;-0.50;99.90;;;;;;4893126;29;20056;-94
2021/01/02 05:21:34;;;;;;;11.93;5.13;;;-0.50;99.90;;;;;;4891192;29;20213;-95
2021/01/02 05:24:08;;;;;;;12.50;5.95;;;-0.50;99.90;;;;;;4890749;29;20044;-93
2021/01/02 05:26:44;;;;;;;10.95;5.63;;;-0.50;99.90;;;;;;4887275;29;20029;-92
2021/01/02 05:29:20;;;;;;;10.40;4.93;;;-0.50;99.90;;;;;;4880776;29;20029;-90
2021/01/02 05:31:53;;;;;;;7.45;4.03;;;-0.50;99.90;;;;;;4877187;29;20081;-92
2021/01/02 05:34:21;;;;;;;10.52;4.80;;;-0.60;99.90;;;;;;4908019;29;20044;-91
2021/01/02 05:36:57;;;;;;;12.23;4.95;;;-0.60;99.90;;;;;;4877334;29;20029;-92
2021/01/02 05:39:37;;;;;;;10.90;5.30;;;-0.60;99.90;;;;;;4877493;29;20531;-94
2021/01/02 05:42:04;;;;;;;10.13;5.55;;;-0.60;99.90;;;;;;4877256;29;20028;-93
2021/01/02 05:44:33;;;;;;;10.60;5.32;;;-0.60;99.90;;;;;;4881563;29;20033;-93
2021/01/02 05:46:59;;;;;;;7.57;4.82;;;-0.60;99.90;;;;;;4882322;29;20539;-92
2021/01/02 05:49:28;;;;;;;10.65;5.25;;;-0.60;99.90;;;;;;4909007;29;20129;-93
2021/01/02 05:51:57;;;;;;;10.65;5.45;;;-0.60;99.90;;;;;;4908903;29;20025;-93
2021/01/02 05:54:25;;;;;;;8.48;4.68;;;-0.60;99.90;;;;;;4880606;29;20041;-93
2021/01/02 05:56:54;;;;;;;8.93;4.70;;;-0.60;99.90;;;;;;4880822;29;20070;-91
2021/01/02 05:59:37;;;;;;;9.60;4.55;;;-0.60;99.90;;;;;;4880841;29;20105;-92
2021/01/02 06:02:19;;;;;;;7.22;4.30;;;-0.60;99.90;;;;;;4911931;29;20064;-92
2021/01/02 06:05:03;;;;;;;7.90;4.15;;;-0.60;99.90;;;;;;4912341;29;20066;-92
2021/01/02 06:07:31;;;;;;;8.77;4.32;;;-0.60;99.90;;;;;;4881498;29;20037;-92
2021/01/02 06:09:58;;;;;;;7.38;3.08;;;-0.60;99.90;;;;;;4881484;29;20032;-93
2021/01/02 06:12:28;;;;;;;8.90;4.60;;;-0.50;99.90;;;;;;4880577;29;20029;-90
2021/01/02 06:14:59;;;;;;;8.68;4.95;;;-0.60;99.90;;;;;;4911975;29;20051;-92
2021/01/02 06:17:31;;;;;;;8.90;4.18;;;-0.70;99.90;;;;;;4912247;29;20037;-92
2021/01/02 06:19:58;;;;;;;8.23;3.75;;;-0.70;99.90;;;;;;4912109;29;20041;-92
2021/01/02 06:22:25;;;;;;;13.48;5.07;;;-0.80;99.90;;;;;;4881239;29;20037;-93
2021/01/02 06:24:51;;;;;;;7.53;3.80;;;-0.80;99.90;;;;;;4881916;29;20129;-92
2021/01/02 06:27:17;;;;;;;12.25;4.40;;;-0.90;99.90;;;;;;4884049;29;20058;-93
2021/01/02 06:29:57;;;;;;;8.07;3.78;;;-0.90;99.90;;;;;;4884017;29;20029;-90
2021/01/02 06:32:24;;;;;;;6.15;3.60;;;-0.90;99.90;;;;;;4888041;29;20044;-92
2021/01/02 06:35:08;;;;;;;6.97;4.20;;;-0.90;99.90;;;;;;4896139;29;20143;-91
2021/01/02 06:37:49;;;;;;;8.57;4.25;;;-0.90;99.90;;;;;;4924592;29;20057;-91
2021/01/02 06:40:19;;;;;;;7.88;3.00;;;-0.90;99.90;;;;;;4932627;29;20128;-90
2021/01/02 06:43:12;;;;;;;6.83;3.03;;;-0.80;99.90;;;;;;4934290;29;20102;-90
2021/01/02 06:45:38;;;;;;;8.25;2.90;;;-0.80;99.90;;;;;;4889858;29;20049;-91
2021/01/02 06:48:13;;;;;;;9.73;4.43;;;-0.80;99.90;;;;;;4899529;29;20048;-91
2021/01/02 06:50:39;;;;;;;6.90;4.03;;;-0.80;99.90;;;;;;4899119;29;20033;-91
2021/01/02 06:53:21;;;;;;;9.70;4.90;;;-0.80;99.90;;;;;;4897949;29;20043;-91
2021/01/02 06:56:15;;;;;;;11.85;3.35;;;-0.90;99.90;;;;;;4898321;29;20073;-91
2021/01/02 06:58:47;;;;;;;13.02;4.63;;;-0.90;99.90;;;;;;4912740;29;20482;-92
2021/01/02 07:01:16;;;;;;;8.65;3.95;;;-0.90;99.90;;;;;;4911876;29;20044;-91
2021/01/02 07:03:42;;;;;;;6.55;3.13;;;-0.90;99.90;;;;;;4897038;29;20456;-91
2021/01/02 07:06:23;;;;;;;7.97;3.42;;;-1.00;99.90;;;;;;4897918;29;20403;-92
2021/01/02 07:09:09;;;;;;;9.65;3.20;;;-1.00;99.90;;;;;;4898054;29;20099;-93
2021/01/02 07:11:40;;;;;;;4.80;2.33;;;-1.00;99.90;;;;;;4896490;29;20025;-91
2021/01/02 07:14:12;;;;;;;4.85;2.10;;;-1.00;99.90;;;;;;4895868;29;20085;-92
2021/01/02 07:16:45;;;;;;;2.70;1.63;;;-0.90;99.90;;;;;;4897334;29;20036;-92
2021/01/02 07:19:26;;;;;;;5.68;2.25;;;-0.90;99.90;;;;;;4910974;29;20037;-92
2021/01/02 07:22:04;;;;;;;6.68;2.72;;;-0.90;99.90;;;;;;4898253;29;20064;-93
2021/01/02 07:24:53;;;;;;;7.15;1.88;;;-0.90;99.90;;;;;;4893257;29;20032;-93
2021/01/02 07:27:21;;;;;;;5.10;2.33;;;-0.90;99.90;;;;;;4895610;29;20036;-92
2021/01/02 07:29:55;;;;;;;5.53;1.67;;;-0.90;99.90;;;;;;4890839;29;20561;-93
2021/01/02 07:32:32;;;;;;;16.13;4.07;;;-0.90;99.90;;;;;;4890149;29;20038;-91
2021/01/02 07:35:00;;;;;;;9.00;3.70;;;-0.90;99.90;;;;;;4892416;29;20542;-91
2021/01/02 07:37:28;;;;;;;12.43;4.43;;;-0.90;99.90;;;;;;4909892;29;20063;-92
2021/01/02 07:39:57;;;;;;;7.18;2.28;;;-0.90;99.90;;;;;;4893671;29;20093;-91
2021/01/02 07:42:26;;;;;;;3.33;1.13;;;-1.00;99.90;;;;;;4898784;29;20037;-92
2021/01/02 07:45:19;;;;;;;10.85;2.55;;;-1.00;99.90;;;;;;4897948;29;20033;-91
2021/01/02 07:47:53;;;;;;;10.88;2.78;;;-0.90;99.90;;;;;;4904486;29;20041;-92
2021/01/02 07:50:21;;;;;;;4.97;1.58;;;-0.90;99.90;;;;;;4906996;29;20067;-91
2021/01/02 07:52:55;;;;;;;3.30;1.65;;;-0.80;99.90;;;;;;4888689;29;20563;-94
2021/01/02 07:55:27;;;;;;;4.40;1.33;;;-0.80;99.90;;;;;;4905099;29;20035;-91
2021/01/02 07:57:53;;;;;;;5.35;1.67;;;-0.70;99.90;;;;;;4900345;29;20033;-92
2021/01/02 08:00:19;;;;;;;4.20;1.25;;;-0.70;99.90;;;;;;4905738;29;20037;-91
2021/01/02 08:02:45;;;;;;;2.95;0.93;;;-0.70;99.90;;;;;;4906604;29;20047;-92
2021/01/02 08:05:19;;;;;;;6.45;1.50;;;-0.60;99.90;;;;;;4905548;29;20036;-93
2021/01/02 08:07:52;;;;;;;4.68;1.45;;;-0.60;99.90;;;;;;4908473;29;20025;-92
2021/01/02 08:10:18;;;;;;;2.53;1.50;;;-0.60;99.90;;;;;;4895651;29;20038;-92
2021/01/02 08:12:46;;;;;;;10.45;2.20;;;-0.60;99.90;;;;;;4901422;29;20029;-92
2021/01/02 08:15:14;;;;;;;3.67;1.88;;;-0.60;99.90;;;;;;4907654;29;20036;-93
2021/01/02 08:17:41;;;;;;;5.03;2.08;;;-0.70;99.90;;;;;;4908646;29;20096;-92
2021/01/02 08:20:07;;;;;;;7.07;2.42;;;-0.70;99.90;;;;;;4903161;29;20024;-92
2021/01/02 08:22:36;;;;;;;6.53;2.42;;;-0.70;99.90;;;;;;4920772;29;20040;-91
2021/01/02 08:25:15;;;;;;;4.32;1.90;;;-0.80;99.90;;;;;;4930807;29;20060;-93
2021/01/02 08:27:42;;;;;;;6.03;1.90;;;-0.80;99.90;;;;;;4923933;29;20039;-92
2021/01/02 08:30:09;;;;;;;6.47;1.85;;;-0.80;99.90;;;;;;4927578;29;20028;-91
2021/01/02 08:32:41;;;;;;;7.82;2.40;;;-0.90;99.90;;;;;;4944057;29;20032;-90
2021/01/02 08:35:37;;;;;;;6.78;1.65;;;-0.90;99.90;;;;;;4940225;29;20032;-91
2021/01/02 08:38:11;;;;;;;6.88;2.53;;;-0.80;99.90;;;;;;4919584;29;20051;-92
2021/01/02 08:40:47;;;;;;;7.78;2.63;;;-0.80;99.90;;;;;;4911650;29;20055;-92
2021/01/02 08:43:46;;;;;;;8.25;2.53;;;-0.80;99.90;;;;;;4932159;29;20148;-93
2021/01/02 08:46:12;;;;;;;5.30;2.25;;;-0.80;99.90;;;;;;4925193;29;20032;-92
2021/01/02 08:48:47;;;;;;;7.05;2.25;;;-0.80;99.90;;;;;;4901337;29;20512;-92
2021/01/02 08:51:26;;;;;;;6.22;2.53;;;-0.80;99.90;;;;;;4921761;29;20046;-92
2021/01/02 08:53:53;;;;;;;3.33;2.08;;;-0.80;99.90;;;;;;4919540;29;20136;-92
2021/01/02 08:56:29;;;;;;;4.47;1.73;;;-0.90;99.90;;;;;;4912610;29;20036;-92
2021/01/02 08:58:57;;;;;;;5.55;2.90;;;-0.90;99.90;;;;;;4917046;29;20478;-93
2021/01/02 09:01:22;;;;;;;4.43;2.05;;;-0.80;99.90;;;;;;4904515;29;20028;-93
2021/01/02 09:03:48;;;;;;;3.90;1.60;;;-0.80;99.90;;;;;;4899824;29;21472;-93
2021/01/02 09:06:26;;;;;;;5.57;1.70;;;-0.80;99.90;;;;;;4899444;29;20033;-93
2021/01/02 09:09:09;;;;;;;3.22;1.40;;;-0.90;99.90;;;;;;4921163;29;20035;-93
2021/01/02 09:11:48;;;;;;;3.30;1.73;;;-0.90;99.90;;;;;;4908346;29;20495;-93
2021/01/02 09:14:13;;;;;;;6.13;1.65;;;-0.90;99.90;;;;;;4909994;29;20494;-92
2021/01/02 09:16:39;;;;;;;7.35;1.50;;;-0.80;99.90;;;;;;4891865;29;20123;-93
2021/01/02 09:19:05;;;;;;;3.58;1.10;;;-0.80;99.90;;;;;;4914997;29;20434;-93
2021/01/02 09:21:30;;;;;;;9.35;1.42;;;-0.80;99.90;;;;;;4908208;29;20083;-92
2021/01/02 09:23:57;;;;;;;3.13;1.40;;;-0.70;99.90;;;;;;4893285;29;20024;-92
2021/01/02 09:26:28;;;;;;;5.75;1.33;;;-0.70;99.90;;;;;;4910280;29;20024;-93
2021/01/02 09:28:54;;;;;;;;;;;-0.50;99.90;;;;;;4897823;29;20094;-92
2021/01/02 09:31:20;;;;;;;5.13;1.25;;;-0.40;99.90;;;;;;4911249;29;20369;-90
2021/01/02 09:33:47;;;;;;;2.70;1.40;;;-0.30;99.90;;;;;;4913005;29;20066;-93
2021/01/02 09:36:13;;;;;;;4.35;1.75;;;-0.20;99.90;;;;;;4907764;29;20179;-93
2021/01/02 09:38:40;;;;;;;5.63;1.58;;;0.00;99.90;;;;;;4895121;29;20048;-93
2021/01/02 09:41:05;;;;;;;1.80;1.15;;;0.20;99.90;;;;;;4893789;29;20024;-93
2021/01/02 09:43:31;;;;;;;5.38;2.00;;;0.30;99.90;;;;;;4896942;29;20024;-94
2021/01/02 09:45:57;;;;;;;6.32;1.58;;;0.40;99.90;;;;;;4914295;29;20076;-92
2021/01/02 09:48:23;;;;;;;3.30;1.60;;;0.50;99.90;;;;;;4912656;29;20020;-92
2021/01/02 09:50:50;;;;;;;5.80;1.52;;;0.60;99.90;;;;;;4916376;29;20027;-92
2021/01/02 09:53:16;;;;;;;3.45;1.50;;;0.70;99.90;;;;;;4911797;29;20024;-92
2021/01/02 09:55:42;;;;;;;3.58;1.58;;;0.80;99.90;;;;;;4914534;29;20397;-93
2021/01/02 09:58:10;;;;;;;5.75;1.95;;;1.00;99.90;;;;;;4910194;29;20020;-96
2021/01/02 10:00:35;;;;;;;4.55;1.60;;;1.10;99.90;;;;;;4894647;29;20159;-95
2021/01/02 10:03:01;;;;;;;3.78;2.00;;;1.40;99.90;;;;;;4902643;29;20514;-94
2021/01/02 10:05:27;;;;;;;6.25;2.80;;;1.70;99.90;;;;;;4901825;29;20036;-94
2021/01/02 10:07:54;;;;;;;5.30;2.20;;;1.90;99.90;;;;;;4896455;29;20031;-96
2021/01/02 10:10:21;;;;;;;6.35;2.15;;;2.10;99.90;;;;;;4896251;29;20025;-94
2021/01/02 10:12:48;;;;;;;3.65;2.28;;;2.10;99.90;;;;;;4915546;29;20397;-94
2021/01/02 10:15:15;;;;;;;5.10;2.50;;;2.00;99.90;;;;;;4896929;29;20032;-94
2021/01/02 10:17:41;;;;;;;5.32;2.60;;;1.90;99.90;;;;;;4897295;29;20024;-94
2021/01/02 10:20:09;;;;;;;3.70;1.65;;;1.90;99.90;;;;;;4906481;29;20216;-95
2021/01/02 10:22:35;;;;;;;4.38;2.20;;;1.80;99.90;;;;;;4912015;29;20036;-93
2021/01/02 10:25:01;;;;;;;6.72;1.90;;;1.80;99.90;;;;;;4895898;29;20030;-95
2021/01/02 10:27:27;;;;;;;4.68;1.80;;;1.70;99.90;;;;;;4894191;29;20052;-93
2021/01/02 10:29:55;;;;;;;2.88;1.58;;;1.70;99.90;;;;;;4895993;29;20119;-94
2021/01/02 10:32:24;;;;;;;4.18;1.20;;;1.70;99.90;;;;;;4893882;29;20107;-95
2021/01/02 10:34:50;;;;;;;3.10;1.10;;;1.80;99.90;;;;;;4908856;29;20516;-95
2021/01/02 10:37:19;;;;;;;3.88;1.13;;;1.90;99.90;;;;;;4902510;29;20020;-94
2021/01/02 10:39:45;;;;;;;5.05;1.92;;;2.00;99.90;;;;;;4914264;29;20056;-94
2021/01/02 10:42:13;;;;;;;11.57;2.97;;;2.10;99.90;;;;;;4909890;29;20485;-94
2021/01/02 10:44:46;;;;;;;6.28;2.40;;;2.20;99.90;;;;;;4910381;29;20021;-94
2021/01/02 10:47:12;;;;;;;6.18;2.22;;;2.40;99.90;;;;;;4931512;29;20000;-94
2021/01/02 10:49:38;;;;;;;4.28;1.73;;;2.50;99.90;;;;;;4926671;29;20128;-94
2021/01/02 10:52:04;;;;;;;4.80;1.67;;;2.60;99.90;;;;;;4917922;29;20066;-95
2021/01/02 10:54:29;;;;;;;4.38;2.05;;;2.70;99.90;;;;;;4919616;29;20048;-95
2021/01/02 10:56:55;;;;;;;3.85;1.70;;;2.70;99.90;;;;;;4921897;29;20024;-94
2021/01/02 10:59:23;;;;;;;2.80;1.70;;;2.70;99.90;;;;;;4927464;29;20119;-95
2021/01/02 11:01:51;;;;;;;4.18;2.03;;;2.60;99.90;;;;;;4911376;29;20029;-95
2021/01/02 11:04:19;;;;;;;3.72;1.88;;;2.50;99.90;;;;;;4917995;29;20086;-95
2021/01/02 11:06:50;;;;;;;3.33;1.52;;;2.40;99.90;;;;;;4929724;29;20032;-95
2021/01/02 11:09:16;;;;;;;10.30;2.38;;;2.30;99.90;;;;;;4930915;29;20100;-94
2021/01/02 11:11:42;;;;;;;6.10;1.60;;;2.20;99.90;;;;;;4917932;29;20043;-94
2021/01/02 11:14:10;;;;;;;5.43;1.55;;;2.20;99.90;;;;;;4918223;29;20044;-93
2021/01/02 11:16:40;;;;;;;4.35;1.98;;;2.10;99.90;;;;;;4917060;29;20008;-93
2021/01/02 11:19:11;;;;;;;5.95;1.80;;;2.10;99.90;;;;;;4914989;29;20040;-95
2021/01/02 11:21:37;;;;;;;3.35;1.67;;;2.00;99.90;;;;;;4910196;29;20153;-92
2021/01/02 11:24:03;;;;;;;5.05;2.03;;;2.00;99.90;;;;;;4936987;29;20024;-93
2021/01/02 11:26:28;;;;;;;5.10;2.13;;;2.00;99.90;;;;;;4925489;29;20017;-94
2021/01/02 11:28:55;;;;;;;6.32;2.40;;;2.00;99.90;;;;;;4925490;29;20040;-91
2021/01/02 11:31:41;;;;;;;8.95;2.75;;;2.00;99.90;;;;;;4912054;29;20039;-94
2021/01/02 11:34:08;;;;;;;4.70;2.38;;;2.00;99.90;;;;;;4926131;29;20048;-94
2021/01/02 11:36:34;;;;;;;5.28;1.98;;;2.00;99.90;;;;;;4915727;29;20043;-95
2021/01/02 11:39:00;;;;;;;7.88;3.25;;;2.00;99.90;;;;;;4911433;29;20425;-94
2021/01/02 11:41:35;;;;;;;4.90;3.10;;;2.00;99.90;;;;;;4927154;29;20036;-94
2021/01/02 11:44:01;;;;;;;6.43;3.42;;;2.00;99.90;;;;;;4909979;29;20028;-94
2021/01/02 11:46:33;;;;;;;7.45;2.95;;;2.00;99.90;;;;;;4909365;29;20060;-95
2021/01/02 11:48:59;;;;;;;5.18;2.13;;;2.00;99.90;;;;;;4909058;29;20718;-94
2021/01/02 11:51:25;;;;;;;6.88;1.98;;;2.00;99.90;;;;;;4904137;29;20131;-94
2021/01/02 11:53:52;;;;;;;4.95;2.15;;;2.00;99.90;;;;;;4909763;29;20043;-93
2021/01/02 11:56:21;;;;;;;8.48;3.33;;;2.00;99.90;;;;;;4908563;29;20032;-93
2021/01/02 11:58:47;;;;;;;3.92;2.20;;;2.00;99.90;;;;;;4905149;29;20036;-95
2021/01/02 12:01:13;;;;;;;2.40;1.80;;;2.00;99.90;;;;;;4907514;29;20043;-95
2021/01/02 12:03:38;;;;;;;15.48;8.02;;;2.10;99.90;;;;;;4906878;29;20469;-96
2021/01/02 12:06:04;;;;;;;17.48;8.55;;;2.10;99.90;;;;;;4909478;29;20123;-93
2021/01/02 12:08:30;;;;;;;15.43;7.45;;;2.10;99.90;;;;;;4919915;29;20051;-96
2021/01/02 12:10:56;;;;;;;37.17;15.88;;;2.10;99.90;;;;;;4916037;29;20056;-95
2021/01/02 12:13:22;;;;;;;10.80;5.18;;;2.20;99.90;;;;;;4907000;29;20187;-95
2021/01/02 12:15:51;;;;;;;14.82;6.10;;;2.20;99.90;;;;;;4914071;29;20115;-95
2021/01/02 12:18:17;;;;;;;9.02;3.70;;;2.20;99.90;;;;;;4911951;29;20028;-96
2021/01/02 12:20:44;;;;;;;4.90;2.35;;;2.20;99.90;;;;;;4912899;29;20039;-96
2021/01/02 12:23:10;;;;;;;3.35;1.55;;;2.20;99.90;;;;;;4913230;29;20052;-94
2021/01/02 12:25:36;;;;;;;1.92;1.15;;;2.30;99.90;;;;;;4911746;29;20517;-95
2021/01/02 12:28:01;;;;;;;1.52;1.02;;;2.20;99.90;;;;;;4909913;29;20028;-95
2021/01/02 12:30:30;;;;;;;1.88;1.00;;;2.20;99.90;;;;;;4908088;29;20035;-96
2021/01/02 12:32:57;;;;;;;2.92;1.20;;;2.20;99.90;;;;;;4907512;29;20035;-96
2021/01/02 12:35:24;;;;;;;3.20;1.05;;;2.20;99.90;;;;;;4907266;29;20032;-95
2021/01/02 12:37:50;;;;;;;2.78;0.82;;;2.20;99.90;;;;;;4906488;29;20028;-96
2021/01/02 12:40:17;;;;;;;2.95;1.52;;;2.20;99.90;;;;;;4907696;29;20131;-96
2021/01/02 12:42:43;;;;;;;4.95;1.67;;;2.20;99.90;;;;;;4912431;29;20012;-96
2021/01/02 12:45:10;;;;;;;1.38;1.10;;;2.20;99.90;;;;;;4908239;29;20039;-94
2021/01/02 12:47:35;;;;;;;7.82;1.52;;;2.20;99.90;;;;;;4903464;29;20092;-91
2021/01/02 12:50:01;;;;;;;2.63;1.70;;;2.10;99.90;;;;;;4906534;29;20029;-94
2021/01/02 12:52:29;;;;;;;3.67;1.48;;;2.10;99.90;;;;;;4933221;29;20043;-91
2021/01/02 12:54:55;;;;;;;2.58;1.58;;;2.20;99.90;;;;;;4938468;29;20052;-95
2021/01/02 12:57:24;;;;;;;6.47;2.85;;;2.20;99.90;;;;;;4938016;29;20019;-93
2021/01/02 12:59:56;;;;;;;4.82;1.40;;;2.30;99.90;;;;;;4940333;29;20066;-92
2021/01/02 13:02:22;;;;;;;11.82;3.75;;;2.50;99.90;;;;;;4943149;29;20020;-91
2021/01/02 13:04:51;;;;;;;7.18;3.10;;;2.60;99.90;;;;;;4948530;28;20229;-91
2021/01/02 13:07:21;;;;;;;4.82;2.60;;;2.80;99.90;;;;;;4926519;29;20049;-95